SKCG/CTG METAR and TAF weather

Enter ICAO airport designator
Station Type Date Time Source
SKCG METAR 2019/08/19 08:00 UTC NOAA

SKCG 190800Z VRB02KT CAVOK 27/25 A2977


Station Type Date Time Source
SKCG Decoded METAR 2019/08/19 08:00 UTC NOAA

Station name not available
Aug 19, 2019 - 04:00 AM EDT / 2019.08.19 0800 UTC
Wind: Variable at 2 MPH (2 KT):0
Visibility: greater than 7 mile(s):0
Temperature: 80 F (27 C)
Dew Point: 77 F (25 C)
Relative Humidity: 88%
Pressure (altimeter): 29.77 in. Hg (1008 hPa)
ob: SKCG 190800Z VRB02KT CAVOK 27/25 A2977
cycle: 8

Station Type Date Time Source
SKCG TAF 2019/08/19 06:49 UTC NOAA

TAF SKCG 190430Z 1906/2006 03005KT 9999 SCT015 SCT100
BECMG 1915/1917 36010KT
TEMPO 1921/1924 DZ SCT015TCU TX32/1918Z TN25/1911Z

Example: see airport list